Nathaniel B. Palmer — WBP3210 — position and weather

sailwx.info

Track history (hours):
 
Tides and Currents Weather Stations Pressure Air Temp Water Temp Dewpoint Dewpoint Depression Visibility Wind Speed Wind Dir Waves Ship Positions

Oceanographic research ship Nathaniel B. Palmer (USA)

Contact: Ethan Norris, ethan.norris.contractor@usap.gov

Detailed information on ship capabilities available from University of Delaware's Ocean Information Center and ARCUS's ALIAS (Arctic Logistics Information and Support) project.

Owner: OFFSHORE SERVICE VESSELS, Cut Off, LA. More information available from US FCC via Universal Licensing System and Coast Guard Vessel Documentation Center.

Last reported at 2018-Feb-21 14:00 UTC. Time now 2018-Feb-21 15:25 UTC.
Position S 69°24' E 171°12'.

Type: Other ship. MMSI: 366610000.

Wind from 140 at 13 knots

Barometer 984.4 mb
Air temperature -3.4 ° C
Water temperature -0.7 ° C

Date/timePositionNaut miles runAvg speedWind from/ knotsBaromVisibWave heightAir tempDewpointWater temp
2018-Feb-21 14:00S 69°24' E 171°12'7 7.3 140 / 13984.4 -3.4 -0.7
2018-Feb-21 13:00S 69°30' E 171°24'9 8.7 150 / 15984.8 -2.9 -0.9
2018-Feb-21 12:00S 69°36' E 171°42'7 7.3 150 / 17985.0 -3.6 -0.9
2018-Feb-21 11:00S 69°42' E 171°54'1312.7 160 / 19985.2 -2.6 -0.9
2018-Feb-21 10:00S 69°54' E 172°06'9 8.6 170 / 20985.3 -2.5 -0.9
2018-Feb-21 09:00S 70°00' E 172°24'7 7.3 170 / 22985.3 -2.2 -0.9
2018-Feb-21 08:00S 70°06' E 172°36'7 7.3 170 / 23985.2 -2.1 -0.9
2018-Feb-21 07:00S 70°12' E 172°48'1313.4 170 / 24985.2 -2.1 -0.9
2018-Feb-21 06:00S 70°24' E 173°06'7 7.2 180 / 26985.1 -3.2 -0.9
2018-Feb-21 05:00S 70°30' E 173°18'7 7.2 180 / 28985.1 -3.6 -0.9
2018-Feb-21 04:00S 70°36' E 173°30'8 8.5 170 / 25984.9 -3.9 -0.9
2018-Feb-21 03:00S 70°42' E 173°48'1312.6 190 / 26985.0 -4.5 -0.9
2018-Feb-21 02:00S 70°54' E 174°00'7 7.2 190 / 28985.1 -3.5 -0.9
2018-Feb-21 01:00S 71°00' E 174°12'6 6.3 180 / 30985.1 -4.0 -1.0
2018-Feb-21 00:00S 71°06' E 174°06'6 6.0 170 / 32985.0 -4.6 -1.0
2018-Feb-20 23:00S 71°12' E 174°06'275 5.3 170 / 30985.4 -5.2 -0.9
2018-Feb-18 19:00S 74°48' E 164°24'0 0.0 260 / 22997.6 -9.3 -1.5
2018-Feb-18 18:00S 74°48' E 164°24'6 6.2 250 / 24997.7 -9.2 -1.5
2018-Feb-18 17:00S 74°42' E 164°30'2 1.6 260 / 21997.6 -8.4 -1.5
2018-Feb-18 16:00S 74°42' E 164°36'2 1.6 240 / 19997.7 -7.7 -1.5
2018-Feb-18 15:00S 74°42' E 164°30'2 1.6 240 / 17998.0 -7.4 -1.5
2018-Feb-18 14:00S 74°42' E 164°24'6 6.2 240 / 16998.2 -7.3 -1.4
2018-Feb-18 13:00S 74°48' E 164°30'6 6.3 240 / 17998.2 -7.4 -1.4
2018-Feb-18 12:00S 74°48' E 164°54'6 6.2 240 / 15998.4 -6.9 -1.5
2018-Feb-18 11:00S 74°42' E 165°00'3 3.2 250 / 11998.7 -6.9 -1.5
2018-Feb-18 10:00S 74°42' E 164°48'3 3.2 250 / 13998.6 -6.9 -1.5
2018-Feb-18 09:00S 74°42' E 164°36'5 4.7 250 / 17998.7 -6.9 -1.4
2018-Feb-18 08:00S 74°42' E 164°18'0 0.0 240 / 18998.8 -6.6 -1.2
2018-Feb-18 07:00S 74°42' E 164°18'0 0.0 250 / 20998.7 -6.8 -1.2
2018-Feb-18 06:00S 74°42' E 164°18'2 1.6 260 / 23998.7 -7.0 -1.2
2018-Feb-18 05:00S 74°42' E 164°24'2 1.6 250 / 25998.6 -7.2 -1.2
2018-Feb-18 04:00S 74°42' E 164°18'0 0.0 250 / 28998.3 -7.7 -1.2
2018-Feb-18 03:00S 74°42' E 164°18'2 1.6 250 / 30998.3 -7.7 -1.1
2018-Feb-18 02:00S 74°42' E 164°24'8 7.7 240 / 23997.8 -7.5 -1.2
2018-Feb-18 01:00S 74°36' E 164°42'0 0.0 220 / 16997.6 -7.2 -1.4
2018-Feb-18 00:00S 74°36' E 164°42'0 0.0 220 / 14997.4 -7.3 -1.4
2018-Feb-17 23:00S 74°36' E 164°42'0 0.0 210 / 10997.1 -7.3 -1.4
2018-Feb-17 22:00S 74°36' E 164°42'0 0.0 270 / 4996.8 -6.7 -1.4
2018-Feb-17 21:00S 74°36' E 164°42'0 0.0 320 / 4996.3 -7.4 -1.4
2018-Feb-17 20:00S 74°36' E 164°42'6 6.0 310 / 9995.6 -7.8 -1.5
2018-Feb-17 19:00S 74°42' E 164°42'2 1.6 250 / 17994.9 -7.9 -1.4
2018-Feb-17 18:00S 74°42' E 164°48'2 1.6 240 / 22994.5 -7.8 -1.4
2018-Feb-17 17:00S 74°42' E 164°54'5 4.7 240 / 16994.2 -6.7 -1.5
2018-Feb-17 16:00S 74°42' E 164°36'5 4.7 240 / 13993.6 -6.3 -1.4
2018-Feb-17 15:00S 74°42' E 164°18'6 6.0 260 / 14992.9 -6.2 -1.2
2018-Feb-17 14:00S 74°48' E 164°18'17 0.7 260 / 34992.2 -8.2 -1.2
2018-Feb-16 15:00S 74°42' E 165°18'3 3.2 200 / 5985.5 -6.1 -1.8
2018-Feb-16 14:00S 74°42' E 165°30'3 3.2 985.7 -6.3 -1.7
2018-Feb-16 13:00S 74°42' E 165°18'7 6.8 330 / 6985.8 -6.3 -1.6
2018-Feb-16 12:00S 74°48' E 165°06'3 3.1 350 / 11985.9 -6.3 -1.8
2018-Feb-16 11:00S 74°48' E 164°54'2 1.6 010 / 10985.8 -5.7 -1.4
2018-Feb-16 10:00S 74°48' E 164°48'0 0.0 010 / 15985.6 -5.5 -1.3
2018-Feb-16 09:00S 74°48' E 164°48'6 6.2 020 / 10985.8 -4.7 -1.3
2018-Feb-16 08:00S 74°42' E 164°42'2 1.6 020 / 14985.9 -6.2 -1.2
2018-Feb-16 07:00S 74°42' E 164°36'0 0.0 030 / 16985.7 -5.9 -1.2
2018-Feb-16 06:00S 74°42' E 164°36'5 4.7 030 / 14985.7 -5.6 -1.2
2018-Feb-16 05:00S 74°42' E 164°54'2 1.6 010 / 10985.8 -5.5 -1.4
2018-Feb-16 04:00S 74°42' E 165°00'5 4.7 020 / 13985.9 -5.3 -1.4
2018-Feb-16 03:00S 74°42' E 164°42'7 6.8 020 / 17986.1 -5.8 -1.3
2018-Feb-16 02:00S 74°48' E 164°30'0 0.0 030 / 13986.2 -4.8 -1.2
2018-Feb-16 01:00S 74°48' E 164°30'0 0.0 350 / 9986.5 -4.5 -1.3
2018-Feb-16 00:00S 74°48' E 164°30'3 3.1 270 / 26986.4 -4.1 -1.3
2018-Feb-15 23:00S 74°48' E 164°18'6 6.2 280 / 28986.0 -4.3 -1.4
2018-Feb-15 22:00S 74°54' E 164°12'6 6.0 270 / 43985.4 -7.4 -1.8
2018-Feb-15 21:00S 75°00' E 164°12'3 3.1 270 / 37987.5 -8.6 -1.8
2018-Feb-15 20:00S 75°00' E 164°24'3 3.1 270 / 41987.0 -8.5 -1.8
2018-Feb-15 19:00S 75°00' E 164°36'2 1.6 260 / 41987.0 -8.8 -1.8
2018-Feb-15 18:00S 75°00' E 164°42'5 4.7 260 / 41986.5 -8.9 -1.8
2018-Feb-15 17:00S 75°00' E 164°24'2 1.6 260 / 47986.0 -9.0 -1.8
2018-Feb-15 16:00S 75°00' E 164°30'3 3.1 250 / 44986.6 -9.0 -1.8
2018-Feb-15 15:00S 75°00' E 164°18'5 4.7 270 / 41986.2 -8.9 -1.8
2018-Feb-15 14:00S 75°00' E 164°00'2 1.6 270 / 34986.2 -8.7 -1.8
2018-Feb-15 13:00S 75°00' E 163°54'2 1.6 260 / 29986.0 -7.7 -1.8
2018-Feb-15 12:00S 75°00' E 164°00'2 1.6 260 / 32985.0 -6.8 -1.8
2018-Feb-15 11:00S 75°00' E 164°06'2 1.6 270 / 32983.6 -5.7 -1.8
2018-Feb-15 10:00S 75°00' E 164°12'3 3.1 270 / 25983.4 -4.5 -1.8
2018-Feb-15 09:00S 75°00' E 164°24'2 1.6 260 / 22982.7 -3.5 -1.8
2018-Feb-15 08:00S 75°00' E 164°30'6 6.2 250 / 28981.8 -2.6 -1.8
2018-Feb-15 07:00S 74°54' E 164°24'6 6.0 260 / 31981.2 -2.1 -1.5
2018-Feb-15 06:00S 74°48' E 164°24'6 6.0 240 / 32981.2 -1.0 -1.1
2018-Feb-15 05:00S 74°42' E 164°24'0 0.0 210 / 24981.9 -1.0 -1.1
2018-Feb-15 04:00S 74°42' E 164°24'6 6.0 220 / 20981.9 -0.5 -1.0
2018-Feb-15 03:00S 74°48' E 164°24'6 6.0 270 / 13981.9 -1.7 -1.0
2018-Feb-15 02:00S 74°42' E 164°24'0 0.0 170 / 5982.5 -3.4 -1.1
2018-Feb-15 01:00S 74°42' E 164°24'0 0.0 210 / 15982.9 -2.7 -1.1
2018-Feb-15 00:00S 74°42' E 164°24'2 1.6 230 / 13983.2 -2.0 -1.1
2018-Feb-14 23:00S 74°42' E 164°18'6 6.2 240 / 8984.1 -2.0 -1.1
2018-Feb-14 22:00S 74°48' E 164°24'3 3.1 010 / 7985.2 -3.5 -1.1
2018-Feb-14 21:00S 74°48' E 164°36'8 7.6 020 / 18985.7 -3.3 -1.4
2018-Feb-14 20:00S 74°54' E 164°54'8 7.6 010 / 15987.3 -3.1 -1.8
2018-Feb-14 19:00S 75°00' E 165°12'10 9.8 320 / 8988.7 -2.2 -1.8
2018-Feb-14 18:00S 75°06' E 165°42'8 7.7 300 / 16989.4 -3.7 -1.8
2018-Feb-14 17:00S 75°06' E 166°12'1111.0 250 / 17990.1 -4.6 -1.7
2018-Feb-14 16:00S 75°12' E 166°48'9 9.2 240 / 23990.5 -5.9 -1.6
2018-Feb-14 15:00S 75°12' E 167°24'10 9.7 240 / 26990.2 -6.5 -1.6
2018-Feb-14 14:00S 75°18' E 167°54'6 6.2 240 / 17990.0 -7.5 -1.6
2018-Feb-14 13:00S 75°24' E 168°00'5 4.5 260 / 11990.0 -7.9 -1.6
2018-Feb-14 12:00S 75°24' E 168°18'10 9.6 250 / 7989.6 -7.2 -1.5
2018-Feb-14 11:00S 75°30' E 168°48'8 7.5 260 / 7989.1 -6.3 -1.4
2018-Feb-14 10:00S 75°30' E 169°18'9 8.5 250 / 11988.4 -6.0 -1.0
2018-Feb-14 09:00S 75°24' E 169°42'8 7.6 240 / 13987.9 -5.5 -0.7
2018-Feb-14 08:00S 75°24' E 170°12'8 7.5 230 / 12987.1 -5.4 -0.5
2018-Feb-14 07:00S 75°18' E 170°30'6 6.2 240 / 10986.3 -5.8 -0.4
2018-Feb-14 06:00S 75°12' E 170°24'6 6.2 240 / 12985.7 -6.1 -0.4
2018-Feb-14 05:00S 75°06' E 170°30'6 6.2 240 / 14984.9 -6.4 -0.2
2018-Feb-14 04:00S 75°00' E 170°36'1212.0 250 / 21984.5 -6.6 -0.1
2018-Feb-14 03:00S 74°48' E 170°36'7 6.8 240 / 24984.4 -6.1 -0.6
2018-Feb-14 02:00S 74°42' E 170°24'6 6.2 240 / 34983.8 -5.2 -0.9
2018-Feb-14 01:00S 74°36' E 170°30'6 6.0 240 / 34983.5 -5.0 -0.8
2018-Feb-14 00:00S 74°42' E 170°30'0 0.0 240 / 35982.9 -5.0 -0.8
2018-Feb-13 23:00S 74°42' E 170°30'2 1.6 240 / 39982.4 -4.6 -0.8
2018-Feb-13 22:00S 74°42' E 170°24'2 1.6 230 / 37981.9 -5.0 -0.7
2018-Feb-13 21:00S 74°42' E 170°18'0 0.0 230 / 29982.3 -5.8 -0.8
2018-Feb-13 20:00S 74°42' E 170°18'0 0.0 230 / 31981.7 -6.1 -0.8
2018-Feb-13 19:00S 74°42' E 170°18'6 6.2 240 / 33981.1 -6.3 -0.8
2018-Feb-13 18:00S 74°48' E 170°12'5 4.7 240 / 28980.3 -6.0 -0.7
2018-Feb-13 17:00S 74°48' E 170°30'2 1.6 250 / 34979.7 -6.0 -0.6
2018-Feb-13 16:00S 74°48' E 170°36'3 3.1 260 / 33979.6 -5.5 -0.5
2018-Feb-13 15:00S 74°48' E 170°24'2 1.6 250 / 42979.0 -4.9 -0.6
2018-Feb-13 14:00S 74°48' E 170°30'3 3.1 250 / 39979.1 -4.6 -0.6
2018-Feb-13 13:00S 74°48' E 170°18'6 6.0 260 / 36979.1 -3.8 -0.6
2018-Feb-13 12:00S 74°54' E 170°18'3 3.1 260 / 39979.3 -3.8 -0.6
2018-Feb-13 11:00S 74°54' E 170°30'2 1.6 260 / 38979.5 -3.5 -0.5
2018-Feb-13 10:00S 74°54' E 170°36'5 4.7 260 / 36979.4 -3.9 -0.2
2018-Feb-13 09:00S 74°54' E 170°18'6 6.3 260 / 35979.4 -3.8 -0.6
2018-Feb-13 08:00S 74°54' E 169°54'5 4.7 260 / 39979.5 -3.7 -0.5
2018-Feb-13 07:00S 74°54' E 169°36'2 1.6 260 / 35980.4 -3.6 -0.4
2018-Feb-13 06:00S 74°54' E 169°30'0 0.0 260 / 38980.7 -3.3 -0.5
2018-Feb-13 05:00S 74°54' E 169°30'6 6.2 270 / 34982.1 -3.3 -0.6
2018-Feb-13 04:00S 75°00' E 169°24'7 6.8 280 / 28982.7 -4.0 -0.9
2018-Feb-13 03:00S 75°06' E 169°12'6 6.2 280 / 34982.7 -4.2 -1.2
2018-Feb-13 02:00S 75°12' E 169°06'6 6.2 280 / 32983.2 -4.7 -1.0
2018-Feb-13 01:00S 75°18' E 169°00'2 1.5 280 / 30984.2 -5.2 -0.9
2018-Feb-13 00:00S 75°18' E 169°06'8 7.5 270 / 33984.6 -5.5 -1.0
2018-Feb-12 23:00S 75°24' E 169°24'7 6.7 270 / 28985.0 -6.1 -0.5
2018-Feb-12 22:00S 75°30' E 169°12'7 6.7 270 / 19985.3 -7.2 -0.2
2018-Feb-12 21:00S 75°36' E 169°00'0 0.0 280 / 23986.0 -8.1 -0.2
2018-Feb-12 20:00S 75°36' E 169°00'1 1.5 280 / 27986.5 -7.9 -0.2
2018-Feb-12 19:00S 75°36' E 168°54'0 0.0 290 / 27987.2 -7.8 -0.1
2018-Feb-12 18:00S 75°36' E 168°54'6 6.2 280 / 31987.3 -7.8 -0.1
2018-Feb-12 17:00S 75°42' E 169°00'6 6.0 280 / 36987.1 -7.4 -0.2
2018-Feb-12 16:00S 75°48' E 169°00'6 6.0 290 / 35987.1 -7.8 -0.1
2018-Feb-12 15:00S 75°54' E 169°00'0 0.0 290 / 29987.3 -8.2 -0.1
2018-Feb-12 14:00S 75°54' E 169°00'6 6.0 300 / 27987.7 -7.7 -0.2
2018-Feb-12 13:00S 76°00' E 169°00'6 6.0 300 / 22988.6 -6.4 -0.1
2018-Feb-12 12:00S 76°06' E 169°00'6 6.2 330 / 18989.3 -5.2 -0.2
2018-Feb-12 11:00S 76°12' E 168°54'0 0.0 340 / 16990.1 -4.6 -0.9
2018-Feb-12 10:00S 76°12' E 168°54'6 6.0 320 / 15991.1 -5.2 -0.8
2018-Feb-12 09:00S 76°18' E 168°54'7 7.4 320 / 14991.9 -5.3 -0.9
2018-Feb-12 08:00S 76°24' E 168°36'3 2.8 310 / 13992.7 -5.0 -1.1
2018-Feb-12 07:00S 76°24' E 168°24'3 2.8 310 / 14993.4 -3.2 -0.8
2018-Feb-12 06:00S 76°24' E 168°12'3 2.8 300 / 13993.7 -3.7 -0.5
2018-Feb-12 05:00S 76°24' E 168°00'1 1.4 290 / 11994.2 -3.4 -0.4
2018-Feb-12 04:00S 76°24' E 167°54'0 0.0 280 / 11994.6 -3.6 -0.7
2018-Feb-12 03:00S 76°24' E 167°54'0 0.0 270 / 12995.0 -3.7 -0.5
2018-Feb-12 02:00S 76°24' E 167°54'0 0.0 260 / 13995.2 -3.9 -0.5
2018-Feb-12 01:00S 76°24' E 167°54'0 0.0 240 / 15995.1 -3.8 -0.5
2018-Feb-12 00:00S 76°24' E 167°54'0 0.0 240 / 20994.7 -4.1 -0.4
2018-Feb-11 23:00S 76°24' E 167°54'0 0.0 220 / 19994.3 -4.0 -0.5
2018-Feb-11 22:00S 76°24' E 167°54'0 0.0 250 / 12994.1 -3.8 -0.5
2018-Feb-11 21:00S 76°24' E 167°54'0 0.0 360 / 9993.7 -3.9 -0.6
2018-Feb-11 20:00S 76°24' E 167°54'0 0.0 020 / 6993.3 -3.9 -0.6
2018-Feb-11 19:00S 76°24' E 167°54'0 0.0 050 / 8992.6 -4.1 -0.6
2018-Feb-11 18:00S 76°24' E 167°54'0 0.0 080 / 13992.0 -4.4 -0.6
2018-Feb-11 17:00S 76°24' E 167°54'3 2.8 110 / 17990.7 -3.9 -0.5
2018-Feb-11 16:00S 76°24' E 168°06'3 2.8 240 / 18990.0 -3.4 -0.5
2018-Feb-11 15:00S 76°24' E 168°18'4 4.2 230 / 17989.9 -3.1 -0.5
2018-Feb-11 14:00S 76°24' E 168°36'   310 / 12990.0 -4.0 -0.6
Track history (hours):
 
Tides and Currents Weather Stations Pressure Air Temp Water Temp Dewpoint Dewpoint Depression Visibility Wind Speed Wind Dir Waves Ship Positions

Oceanographic research ship Nathaniel B. Palmer (USA)

Contact: Ethan Norris, ethan.norris.contractor@usap.gov

Detailed information on ship capabilities available from University of Delaware's Ocean Information Center and ARCUS's ALIAS (Arctic Logistics Information and Support) project.

Owner: OFFSHORE SERVICE VESSELS, Cut Off, LA. More information available from US FCC via Universal Licensing System and Coast Guard Vessel Documentation Center.

Last reported at 2018-Feb-21 14:00 UTC. Time now 2018-Feb-21 15:25 UTC.
Position S 69°24' E 171°12'.

Type: Other ship. MMSI: 366610000.

Wind from 140 at 13 knots

Barometer 984.4 mb
Air temperature -3.4 ° C
Water temperature -0.7 ° C

Date/timePositionNaut miles runAvg speedWind from/ knotsBaromVisibWave heightAir tempDewpointWater temp
2018-Feb-21 14:00S 69°24' E 171°12'7 7.3 140 / 13984.4 -3.4 -0.7
2018-Feb-21 13:00S 69°30' E 171°24'9 8.7 150 / 15984.8 -2.9 -0.9
2018-Feb-21 12:00S 69°36' E 171°42'7 7.3 150 / 17985.0 -3.6 -0.9
2018-Feb-21 11:00S 69°42' E 171°54'1312.7 160 / 19985.2 -2.6 -0.9
2018-Feb-21 10:00S 69°54' E 172°06'9 8.6 170 / 20985.3 -2.5 -0.9
2018-Feb-21 09:00S 70°00' E 172°24'7 7.3 170 / 22985.3 -2.2 -0.9
2018-Feb-21 08:00S 70°06' E 172°36'7 7.3 170 / 23985.2 -2.1 -0.9
2018-Feb-21 07:00S 70°12' E 172°48'1313.4 170 / 24985.2 -2.1 -0.9
2018-Feb-21 06:00S 70°24' E 173°06'7 7.2 180 / 26985.1 -3.2 -0.9
2018-Feb-21 05:00S 70°30' E 173°18'7 7.2 180 / 28985.1 -3.6 -0.9
2018-Feb-21 04:00S 70°36' E 173°30'8 8.5 170 / 25984.9 -3.9 -0.9
2018-Feb-21 03:00S 70°42' E 173°48'1312.6 190 / 26985.0 -4.5 -0.9
2018-Feb-21 02:00S 70°54' E 174°00'7 7.2 190 / 28985.1 -3.5 -0.9
2018-Feb-21 01:00S 71°00' E 174°12'6 6.3 180 / 30985.1 -4.0 -1.0
2018-Feb-21 00:00S 71°06' E 174°06'6 6.0 170 / 32985.0 -4.6 -1.0
2018-Feb-20 23:00S 71°12' E 174°06'275 5.3 170 / 30985.4 -5.2 -0.9
2018-Feb-18 19:00S 74°48' E 164°24'0 0.0 260 / 22997.6 -9.3 -1.5
2018-Feb-18 18:00S 74°48' E 164°24'6 6.2 250 / 24997.7 -9.2 -1.5
2018-Feb-18 17:00S 74°42' E 164°30'2 1.6 260 / 21997.6 -8.4 -1.5
2018-Feb-18 16:00S 74°42' E 164°36'2 1.6 240 / 19997.7 -7.7 -1.5
2018-Feb-18 15:00S 74°42' E 164°30'2 1.6 240 / 17998.0 -7.4 -1.5
2018-Feb-18 14:00S 74°42' E 164°24'6 6.2 240 / 16998.2 -7.3 -1.4
2018-Feb-18 13:00S 74°48' E 164°30'6 6.3 240 / 17998.2 -7.4 -1.4
2018-Feb-18 12:00S 74°48' E 164°54'6 6.2 240 / 15998.4 -6.9 -1.5
2018-Feb-18 11:00S 74°42' E 165°00'3 3.2 250 / 11998.7 -6.9 -1.5
2018-Feb-18 10:00S 74°42' E 164°48'3 3.2 250 / 13998.6 -6.9 -1.5
2018-Feb-18 09:00S 74°42' E 164°36'5 4.7 250 / 17998.7 -6.9 -1.4
2018-Feb-18 08:00S 74°42' E 164°18'0 0.0 240 / 18998.8 -6.6 -1.2
2018-Feb-18 07:00S 74°42' E 164°18'0 0.0 250 / 20998.7 -6.8 -1.2
2018-Feb-18 06:00S 74°42' E 164°18'2 1.6 260 / 23998.7 -7.0 -1.2
2018-Feb-18 05:00S 74°42' E 164°24'2 1.6 250 / 25998.6 -7.2 -1.2
2018-Feb-18 04:00S 74°42' E 164°18'0 0.0 250 / 28998.3 -7.7 -1.2
2018-Feb-18 03:00S 74°42' E 164°18'2 1.6 250 / 30998.3 -7.7 -1.1
2018-Feb-18 02:00S 74°42' E 164°24'8 7.7 240 / 23997.8 -7.5 -1.2
2018-Feb-18 01:00S 74°36' E 164°42'0 0.0 220 / 16997.6 -7.2 -1.4
2018-Feb-18 00:00S 74°36' E 164°42'0 0.0 220 / 14997.4 -7.3 -1.4
2018-Feb-17 23:00S 74°36' E 164°42'0 0.0 210 / 10997.1 -7.3 -1.4
2018-Feb-17 22:00S 74°36' E 164°42'0 0.0 270 / 4996.8 -6.7 -1.4
2018-Feb-17 21:00S 74°36' E 164°42'0 0.0 320 / 4996.3 -7.4 -1.4
2018-Feb-17 20:00S 74°36' E 164°42'6 6.0 310 / 9995.6 -7.8 -1.5
2018-Feb-17 19:00S 74°42' E 164°42'2 1.6 250 / 17994.9 -7.9 -1.4
2018-Feb-17 18:00S 74°42' E 164°48'2 1.6 240 / 22994.5 -7.8 -1.4
2018-Feb-17 17:00S 74°42' E 164°54'5 4.7 240 / 16994.2 -6.7 -1.5
2018-Feb-17 16:00S 74°42' E 164°36'5 4.7 240 / 13993.6 -6.3 -1.4
2018-Feb-17 15:00S 74°42' E 164°18'6 6.0 260 / 14992.9 -6.2 -1.2
2018-Feb-17 14:00S 74°48' E 164°18'17 0.7 260 / 34992.2 -8.2 -1.2
2018-Feb-16 15:00S 74°42' E 165°18'3 3.2 200 / 5985.5 -6.1 -1.8
2018-Feb-16 14:00S 74°42' E 165°30'3 3.2 985.7 -6.3 -1.7
2018-Feb-16 13:00S 74°42' E 165°18'7 6.8 330 / 6985.8 -6.3 -1.6
2018-Feb-16 12:00S 74°48' E 165°06'3 3.1 350 / 11985.9 -6.3 -1.8
2018-Feb-16 11:00S 74°48' E 164°54'2 1.6 010 / 10985.8 -5.7 -1.4
2018-Feb-16 10:00S 74°48' E 164°48'0 0.0 010 / 15985.6 -5.5 -1.3
2018-Feb-16 09:00S 74°48' E 164°48'6 6.2 020 / 10985.8 -4.7 -1.3
2018-Feb-16 08:00S 74°42' E 164°42'2 1.6 020 / 14985.9 -6.2 -1.2
2018-Feb-16 07:00S 74°42' E 164°36'0 0.0 030 / 16985.7 -5.9 -1.2
2018-Feb-16 06:00S 74°42' E 164°36'5 4.7 030 / 14985.7 -5.6 -1.2
2018-Feb-16 05:00S 74°42' E 164°54'2 1.6 010 / 10985.8 -5.5 -1.4
2018-Feb-16 04:00S 74°42' E 165°00'5 4.7 020 / 13985.9 -5.3 -1.4
2018-Feb-16 03:00S 74°42' E 164°42'7 6.8 020 / 17986.1 -5.8 -1.3
2018-Feb-16 02:00S 74°48' E 164°30'0 0.0 030 / 13986.2 -4.8 -1.2
2018-Feb-16 01:00S 74°48' E 164°30'0 0.0 350 / 9986.5 -4.5 -1.3
2018-Feb-16 00:00S 74°48' E 164°30'3 3.1 270 / 26986.4 -4.1 -1.3
2018-Feb-15 23:00S 74°48' E 164°18'6 6.2 280 / 28986.0 -4.3 -1.4
2018-Feb-15 22:00S 74°54' E 164°12'6 6.0 270 / 43985.4 -7.4 -1.8
2018-Feb-15 21:00S 75°00' E 164°12'3 3.1 270 / 37987.5 -8.6 -1.8
2018-Feb-15 20:00S 75°00' E 164°24'3 3.1 270 / 41987.0 -8.5 -1.8
2018-Feb-15 19:00S 75°00' E 164°36'2 1.6 260 / 41987.0 -8.8 -1.8
2018-Feb-15 18:00S 75°00' E 164°42'5 4.7 260 / 41986.5 -8.9 -1.8
2018-Feb-15 17:00S 75°00' E 164°24'2 1.6 260 / 47986.0 -9.0 -1.8
2018-Feb-15 16:00S 75°00' E 164°30'3 3.1 250 / 44986.6 -9.0 -1.8
2018-Feb-15 15:00S 75°00' E 164°18'5 4.7 270 / 41986.2 -8.9 -1.8
2018-Feb-15 14:00S 75°00' E 164°00'2 1.6 270 / 34986.2 -8.7 -1.8
2018-Feb-15 13:00S 75°00' E 163°54'2 1.6 260 / 29986.0 -7.7 -1.8
2018-Feb-15 12:00S 75°00' E 164°00'2 1.6 260 / 32985.0 -6.8 -1.8
2018-Feb-15 11:00S 75°00' E 164°06'2 1.6 270 / 32983.6 -5.7 -1.8
2018-Feb-15 10:00S 75°00' E 164°12'3 3.1 270 / 25983.4 -4.5 -1.8
2018-Feb-15 09:00S 75°00' E 164°24'2 1.6 260 / 22982.7 -3.5 -1.8
2018-Feb-15 08:00S 75°00' E 164°30'6 6.2 250 / 28981.8 -2.6 -1.8
2018-Feb-15 07:00S 74°54' E 164°24'6 6.0 260 / 31981.2 -2.1 -1.5
2018-Feb-15 06:00S 74°48' E 164°24'6 6.0 240 / 32981.2 -1.0 -1.1
2018-Feb-15 05:00S 74°42' E 164°24'0 0.0 210 / 24981.9 -1.0 -1.1
2018-Feb-15 04:00S 74°42' E 164°24'6 6.0 220 / 20981.9 -0.5 -1.0
2018-Feb-15 03:00S 74°48' E 164°24'6 6.0 270 / 13981.9 -1.7 -1.0
2018-Feb-15 02:00S 74°42' E 164°24'0 0.0 170 / 5982.5 -3.4 -1.1
2018-Feb-15 01:00S 74°42' E 164°24'0 0.0 210 / 15982.9 -2.7 -1.1
2018-Feb-15 00:00S 74°42' E 164°24'2 1.6 230 / 13983.2 -2.0 -1.1
2018-Feb-14 23:00S 74°42' E 164°18'6 6.2 240 / 8984.1 -2.0 -1.1
2018-Feb-14 22:00S 74°48' E 164°24'3 3.1 010 / 7985.2 -3.5 -1.1
2018-Feb-14 21:00S 74°48' E 164°36'8 7.6 020 / 18985.7 -3.3 -1.4
2018-Feb-14 20:00S 74°54' E 164°54'8 7.6 010 / 15987.3 -3.1 -1.8
2018-Feb-14 19:00S 75°00' E 165°12'10 9.8 320 / 8988.7 -2.2 -1.8
2018-Feb-14 18:00S 75°06' E 165°42'8 7.7 300 / 16989.4 -3.7 -1.8
2018-Feb-14 17:00S 75°06' E 166°12'1111.0 250 / 17990.1 -4.6 -1.7
2018-Feb-14 16:00S 75°12' E 166°48'9 9.2 240 / 23990.5 -5.9 -1.6
2018-Feb-14 15:00S 75°12' E 167°24'10 9.7 240 / 26990.2 -6.5 -1.6
2018-Feb-14 14:00S 75°18' E 167°54'6 6.2 240 / 17990.0 -7.5 -1.6
2018-Feb-14 13:00S 75°24' E 168°00'5 4.5 260 / 11990.0 -7.9 -1.6
2018-Feb-14 12:00S 75°24' E 168°18'10 9.6 250 / 7989.6 -7.2 -1.5
2018-Feb-14 11:00S 75°30' E 168°48'8 7.5 260 / 7989.1 -6.3 -1.4
2018-Feb-14 10:00S 75°30' E 169°18'9 8.5 250 / 11988.4 -6.0 -1.0
2018-Feb-14 09:00S 75°24' E 169°42'8 7.6 240 / 13987.9 -5.5 -0.7
2018-Feb-14 08:00S 75°24' E 170°12'8 7.5 230 / 12987.1 -5.4 -0.5
2018-Feb-14 07:00S 75°18' E 170°30'6 6.2 240 / 10986.3 -5.8 -0.4
2018-Feb-14 06:00S 75°12' E 170°24'6 6.2 240 / 12985.7 -6.1 -0.4
2018-Feb-14 05:00S 75°06' E 170°30'6 6.2 240 / 14984.9 -6.4 -0.2
2018-Feb-14 04:00S 75°00' E 170°36'1212.0 250 / 21984.5 -6.6 -0.1
2018-Feb-14 03:00S 74°48' E 170°36'7 6.8 240 / 24984.4 -6.1 -0.6
2018-Feb-14 02:00S 74°42' E 170°24'6 6.2 240 / 34983.8 -5.2 -0.9
2018-Feb-14 01:00S 74°36' E 170°30'6 6.0 240 / 34983.5 -5.0 -0.8
2018-Feb-14 00:00S 74°42' E 170°30'0 0.0 240 / 35982.9 -5.0 -0.8
2018-Feb-13 23:00S 74°42' E 170°30'2 1.6 240 / 39982.4 -4.6 -0.8
2018-Feb-13 22:00S 74°42' E 170°24'2 1.6 230 / 37981.9 -5.0 -0.7
2018-Feb-13 21:00S 74°42' E 170°18'0 0.0 230 / 29982.3 -5.8 -0.8
2018-Feb-13 20:00S 74°42' E 170°18'0 0.0 230 / 31981.7 -6.1 -0.8
2018-Feb-13 19:00S 74°42' E 170°18'6 6.2 240 / 33981.1 -6.3 -0.8
2018-Feb-13 18:00S 74°48' E 170°12'5 4.7 240 / 28980.3 -6.0 -0.7
2018-Feb-13 17:00S 74°48' E 170°30'2 1.6 250 / 34979.7 -6.0 -0.6
2018-Feb-13 16:00S 74°48' E 170°36'3 3.1 260 / 33979.6 -5.5 -0.5
2018-Feb-13 15:00S 74°48' E 170°24'2 1.6 250 / 42979.0 -4.9 -0.6
2018-Feb-13 14:00S 74°48' E 170°30'3 3.1 250 / 39979.1 -4.6 -0.6
2018-Feb-13 13:00S 74°48' E 170°18'6 6.0 260 / 36979.1 -3.8 -0.6
2018-Feb-13 12:00S 74°54' E 170°18'3 3.1 260 / 39979.3 -3.8 -0.6
2018-Feb-13 11:00S 74°54' E 170°30'2 1.6 260 / 38979.5 -3.5 -0.5
2018-Feb-13 10:00S 74°54' E 170°36'5 4.7 260 / 36979.4 -3.9 -0.2
2018-Feb-13 09:00S 74°54' E 170°18'6 6.3 260 / 35979.4 -3.8 -0.6
2018-Feb-13 08:00S 74°54' E 169°54'5 4.7 260 / 39979.5 -3.7 -0.5
2018-Feb-13 07:00S 74°54' E 169°36'2 1.6 260 / 35980.4 -3.6 -0.4
2018-Feb-13 06:00S 74°54' E 169°30'0 0.0 260 / 38980.7 -3.3 -0.5
2018-Feb-13 05:00S 74°54' E 169°30'6 6.2 270 / 34982.1 -3.3 -0.6
2018-Feb-13 04:00S 75°00' E 169°24'7 6.8 280 / 28982.7 -4.0 -0.9
2018-Feb-13 03:00S 75°06' E 169°12'6 6.2 280 / 34982.7 -4.2 -1.2
2018-Feb-13 02:00S 75°12' E 169°06'6 6.2 280 / 32983.2 -4.7 -1.0
2018-Feb-13 01:00S 75°18' E 169°00'2 1.5 280 / 30984.2 -5.2 -0.9
2018-Feb-13 00:00S 75°18' E 169°06'8 7.5 270 / 33984.6 -5.5 -1.0
2018-Feb-12 23:00S 75°24' E 169°24'7 6.7 270 / 28985.0 -6.1 -0.5
2018-Feb-12 22:00S 75°30' E 169°12'7 6.7 270 / 19985.3 -7.2 -0.2
2018-Feb-12 21:00S 75°36' E 169°00'0 0.0 280 / 23986.0 -8.1 -0.2
2018-Feb-12 20:00S 75°36' E 169°00'1 1.5 280 / 27986.5 -7.9 -0.2
2018-Feb-12 19:00S 75°36' E 168°54'0 0.0 290 / 27987.2 -7.8 -0.1
2018-Feb-12 18:00S 75°36' E 168°54'6 6.2 280 / 31987.3 -7.8 -0.1
2018-Feb-12 17:00S 75°42' E 169°00'6 6.0 280 / 36987.1 -7.4 -0.2
2018-Feb-12 16:00S 75°48' E 169°00'6 6.0 290 / 35987.1 -7.8 -0.1
2018-Feb-12 15:00S 75°54' E 169°00'0 0.0 290 / 29987.3 -8.2 -0.1
2018-Feb-12 14:00S 75°54' E 169°00'6 6.0 300 / 27987.7 -7.7 -0.2
2018-Feb-12 13:00S 76°00' E 169°00'6 6.0 300 / 22988.6 -6.4 -0.1
2018-Feb-12 12:00S 76°06' E 169°00'6 6.2 330 / 18989.3 -5.2 -0.2
2018-Feb-12 11:00S 76°12' E 168°54'0 0.0 340 / 16990.1 -4.6 -0.9
2018-Feb-12 10:00S 76°12' E 168°54'6 6.0 320 / 15991.1 -5.2 -0.8
2018-Feb-12 09:00S 76°18' E 168°54'7 7.4 320 / 14991.9 -5.3 -0.9
2018-Feb-12 08:00S 76°24' E 168°36'3 2.8 310 / 13992.7 -5.0 -1.1
2018-Feb-12 07:00S 76°24' E 168°24'3 2.8 310 / 14993.4 -3.2 -0.8
2018-Feb-12 06:00S 76°24' E 168°12'3 2.8 300 / 13993.7 -3.7 -0.5
2018-Feb-12 05:00S 76°24' E 168°00'1 1.4 290 / 11994.2 -3.4 -0.4
2018-Feb-12 04:00S 76°24' E 167°54'0 0.0 280 / 11994.6 -3.6 -0.7
2018-Feb-12 03:00S 76°24' E 167°54'0 0.0 270 / 12995.0 -3.7 -0.5
2018-Feb-12 02:00S 76°24' E 167°54'0 0.0 260 / 13995.2 -3.9 -0.5
2018-Feb-12 01:00S 76°24' E 167°54'0 0.0 240 / 15995.1 -3.8 -0.5
2018-Feb-12 00:00S 76°24' E 167°54'0 0.0 240 / 20994.7 -4.1 -0.4
2018-Feb-11 23:00S 76°24' E 167°54'0 0.0 220 / 19994.3 -4.0 -0.5
2018-Feb-11 22:00S 76°24' E 167°54'0 0.0 250 / 12994.1 -3.8 -0.5
2018-Feb-11 21:00S 76°24' E 167°54'0 0.0 360 / 9993.7 -3.9 -0.6
2018-Feb-11 20:00S 76°24' E 167°54'0 0.0 020 / 6993.3 -3.9 -0.6
2018-Feb-11 19:00S 76°24' E 167°54'0 0.0 050 / 8992.6 -4.1 -0.6
2018-Feb-11 18:00S 76°24' E 167°54'0 0.0 080 / 13992.0 -4.4 -0.6
2018-Feb-11 17:00S 76°24' E 167°54'3 2.8 110 / 17990.7 -3.9 -0.5
2018-Feb-11 16:00S 76°24' E 168°06'3 2.8 240 / 18990.0 -3.4 -0.5
2018-Feb-11 15:00S 76°24' E 168°18'4 4.2 230 / 17989.9 -3.1 -0.5
2018-Feb-11 14:00S 76°24' E 168°36'   310 / 12990.0 -4.0 -0.6

Dump ship's entire track history